Time;durP1;ratioP1;P1;durP2;ratioP2;P2;SDS_P1;SDS_P2;PMS_P1;PMS_P2;Temp;Humidity;BMP_temperature;BMP_pressure;BME280_temperature;BME280_humidity;BME280_pressure;Samples;Min_cycle;Max_cycle;Signal;HPM_P1;HPM_P2
2021/11/21 00:01:06;;;;;;;34.90;18.77;;;5.70;99.90;;;;;;5101221;28;20080;-64
2021/11/21 00:03:32;;;;;;;41.17;19.13;;;5.80;99.90;;;;;;5099447;28;20431;-65
2021/11/21 00:05:58;;;;;;;37.35;20.23;;;5.80;99.90;;;;;;5101737;28;20120;-65
2021/11/21 00:08:23;;;;;;;;;;;5.80;99.90;;;;;;5101665;28;20050;-64
2021/11/21 00:10:49;;;;;;;37.42;18.92;;;5.80;99.90;;;;;;5102260;28;20411;-64
2021/11/21 00:13:15;;;;;;;34.53;18.90;;;5.80;99.90;;;;;;5102022;28;20636;-65
2021/11/21 00:15:41;;;;;;;36.47;19.40;;;5.80;99.90;;;;;;5100413;28;20395;-70
2021/11/21 00:18:08;;;;;;;39.53;19.13;;;5.80;99.90;;;;;;5092845;28;20047;-66
2021/11/21 00:20:34;;;;;;;40.33;20.65;;;5.80;99.90;;;;;;5088542;28;20031;-67
2021/11/21 00:23:00;;;;;;;36.40;19.35;;;5.80;99.90;;;;;;5083547;28;20048;-67
2021/11/21 00:25:26;;;;;;;34.05;18.20;;;5.80;99.90;;;;;;5081976;28;20044;-67
2021/11/21 00:27:52;;;;;;;37.05;19.10;;;5.80;99.90;;;;;;5080059;28;20046;-67
2021/11/21 00:30:18;;;;;;;35.17;18.27;;;5.80;99.90;;;;;;5077488;28;20964;-67
2021/11/21 00:32:44;;;;;;;;;;;5.80;99.90;;;;;;5078092;28;20032;-67
2021/11/21 00:35:09;;;;;;;34.03;17.83;;;5.80;99.90;;;;;;5051200;27;19939;-67
2021/11/21 00:37:35;;;;;;;;;;;5.90;99.90;;;;;;5129144;27;20055;-67
2021/11/21 00:40:02;;;;;;;53.90;25.65;;;5.90;99.90;;;;;;5120620;27;20379;-67
2021/11/21 00:42:27;;;;;;;37.63;19.92;;;5.80;99.90;;;;;;5127490;27;20047;-68
2021/11/21 00:44:53;;;;;;;34.45;19.13;;;5.80;99.90;;;;;;5128716;27;20095;-67
2021/11/21 00:47:19;;;;;;;33.80;18.75;;;5.80;99.90;;;;;;5129035;27;20043;-67
2021/11/21 00:49:45;;;;;;;31.15;17.13;;;5.90;99.90;;;;;;5113915;27;20380;-67
2021/11/21 00:52:11;;;;;;;31.63;15.63;;;5.80;99.90;;;;;;5109058;28;20101;-67
2021/11/21 00:54:49;;;;;;;;;;;5.80;99.90;;;;;;5109939;28;20039;-67
2021/11/21 00:57:15;;;;;;;29.08;15.90;;;5.70;99.90;;;;;;5116011;27;19919;-68
2021/11/21 00:59:41;;;;;;;29.52;15.95;;;5.70;99.90;;;;;;5125427;27;20035;-68
2021/11/21 01:02:09;;;;;;;29.05;15.18;;;5.70;99.90;;;;;;5123634;27;20683;-67
2021/11/21 01:04:37;;;;;;;26.77;14.63;;;5.70;99.90;;;;;;5108132;28;20100;-67
2021/11/21 01:07:03;;;;;;;27.70;14.98;;;5.80;99.90;;;;;;5109297;27;20055;-67
2021/11/21 01:09:29;;;;;;;24.02;12.85;;;5.80;99.90;;;;;;5118152;27;20043;-68
2021/11/21 01:11:57;;;;;;;20.85;12.10;;;5.80;99.90;;;;;;5127377;27;20038;-68
2021/11/21 01:14:24;;;;;;;23.23;11.30;;;5.90;99.90;;;;;;5127751;27;20035;-68
2021/11/21 01:16:50;;;;;;;22.00;12.15;;;5.80;99.90;;;;;;5127247;27;20031;-67
2021/11/21 01:19:16;;;;;;;17.15;9.90;;;5.80;99.90;;;;;;5127574;27;20039;-67
2021/11/21 01:21:42;;;;;;;20.67;11.05;;;5.80;99.90;;;;;;5127758;27;20051;-67
2021/11/21 01:24:08;;;;;;;20.38;10.98;;;5.80;99.90;;;;;;5128124;27;20043;-67
2021/11/21 01:26:34;;;;;;;20.27;11.48;;;5.80;99.90;;;;;;5127106;27;20530;-67
2021/11/21 01:29:00;;;;;;;19.08;10.60;;;5.80;99.90;;;;;;5121327;27;20046;-67
2021/11/21 01:31:25;;;;;;;18.13;9.73;;;5.80;99.90;;;;;;5119930;27;20471;-67
2021/11/21 01:33:51;;;;;;;18.88;11.27;;;5.90;99.90;;;;;;5127728;27;20498;-68
2021/11/21 01:36:17;;;;;;;18.85;10.40;;;5.80;99.90;;;;;;5127664;27;20050;-67
2021/11/21 01:38:43;;;;;;;;;;;5.80;99.90;;;;;;5118685;27;20534;-67
2021/11/21 01:41:10;;;;;;;17.92;10.00;;;5.90;99.90;;;;;;5107418;27;19916;-67
2021/11/21 01:43:36;;;;;;;20.85;10.50;;;5.80;99.90;;;;;;5108077;27;20090;-67
2021/11/21 01:46:02;;;;;;;18.17;9.98;;;5.80;99.90;;;;;;5106679;28;20555;-67
2021/11/21 01:48:27;;;;;;;19.10;9.50;;;5.90;99.90;;;;;;5113058;27;20035;-67
2021/11/21 01:50:55;;;;;;;16.48;8.90;;;5.90;99.90;;;;;;5127873;27;20043;-67
2021/11/21 01:53:21;;;;;;;16.75;9.73;;;5.90;99.90;;;;;;5127737;27;20792;-65
2021/11/21 01:55:50;;;;;;;16.02;9.35;;;5.90;99.90;;;;;;5125294;27;20407;-67
2021/11/21 01:58:16;;;;;;;15.60;8.88;;;6.00;99.90;;;;;;5119448;27;20046;-67
2021/11/21 02:00:45;;;;;;;17.67;9.52;;;6.00;99.90;;;;;;5126648;27;20049;-67
2021/11/21 02:03:10;;;;;;;19.65;10.20;;;6.00;99.90;;;;;;5127923;27;20079;-67
2021/11/21 02:05:36;;;;;;;;;;;5.90;99.90;;;;;;5127680;27;20525;-67
2021/11/21 02:08:05;;;;;;;17.38;8.25;;;6.00;99.90;;;;;;5123842;27;19923;-67
2021/11/21 02:10:34;;;;;;;16.15;8.65;;;5.90;99.90;;;;;;5122073;27;20039;-67
2021/11/21 02:13:00;;;;;;;15.55;8.30;;;5.90;99.90;;;;;;5129074;27;20039;-67
2021/11/21 02:15:26;;;;;;;15.85;8.10;;;6.00;99.90;;;;;;5130059;27;20056;-67
2021/11/21 02:17:53;;;;;;;45.05;24.77;;;5.90;99.90;;;;;;5127264;27;20718;-67
2021/11/21 02:20:42;;;;;;;21.45;10.73;;;5.90;99.90;;;;;;5127194;27;20110;-67
2021/11/21 02:23:08;;;;;;;20.23;10.32;;;6.00;99.90;;;;;;5126734;27;20108;-67
2021/11/21 02:25:35;;;;;;;28.15;14.35;;;5.90;99.90;;;;;;5126970;27;20125;-67
2021/11/21 02:28:01;;;;;;;16.55;9.20;;;6.00;99.90;;;;;;5127017;27;20039;-67
2021/11/21 02:30:27;;;;;;;14.18;7.28;;;6.00;99.90;;;;;;5121684;27;20519;-67
2021/11/21 02:32:53;;;;;;;;;;;5.90;99.90;;;;;;5118853;27;20046;-68
2021/11/21 02:35:21;;;;;;;12.45;7.20;;;6.00;99.90;;;;;;5128116;27;20026;-68
2021/11/21 02:37:47;;;;;;;16.10;7.53;;;6.00;99.90;;;;;;5124934;27;20043;-68
2021/11/21 02:40:14;;;;;;;12.85;7.07;;;6.00;99.90;;;;;;5118856;27;20035;-67
2021/11/21 02:42:40;;;;;;;14.73;7.65;;;6.00;99.90;;;;;;5128204;27;20092;-67
2021/11/21 02:45:18;;;;;;;13.20;7.50;;;6.00;99.90;;;;;;5125861;27;20422;-67
2021/11/21 02:47:44;;;;;;;29.55;8.90;;;6.00;99.90;;;;;;5124638;27;20054;-67
2021/11/21 02:50:16;;;;;;;13.55;7.65;;;6.00;99.90;;;;;;5106700;27;20039;-67
2021/11/21 02:52:42;;;;;;;12.00;7.05;;;6.00;99.90;;;;;;5106557;28;20039;-67
2021/11/21 02:55:08;;;;;;;11.43;7.00;;;6.00;99.90;;;;;;5107138;28;20036;-67
2021/11/21 02:57:34;;;;;;;16.02;7.70;;;6.00;99.90;;;;;;5114709;27;20511;-67
2021/11/21 03:00:02;;;;;;;15.75;7.78;;;6.00;99.90;;;;;;5125418;27;20094;-67
2021/11/21 03:02:28;;;;;;;12.20;7.70;;;6.00;99.90;;;;;;5120438;27;20035;-67
2021/11/21 03:04:55;;;;;;;13.60;7.45;;;6.00;99.90;;;;;;5106718;28;20563;-67
2021/11/21 03:07:21;;;;;;;13.93;7.25;;;6.00;99.90;;;;;;5110430;28;20887;-67
2021/11/21 03:09:48;;;;;;;15.88;7.85;;;6.10;99.90;;;;;;5117442;28;20038;-67
2021/11/21 03:12:14;;;;;;;10.55;6.82;;;6.10;99.90;;;;;;5127928;27;20141;-66
2021/11/21 03:14:40;;;;;;;13.82;7.65;;;6.00;99.90;;;;;;5125821;27;20645;-67
2021/11/21 03:17:06;;;;;;;12.77;7.43;;;6.00;99.90;;;;;;5123875;28;20501;-67
2021/11/21 03:19:32;;;;;;;14.48;7.68;;;6.10;99.90;;;;;;5121277;28;20035;-67
2021/11/21 03:21:59;;;;;;;11.68;6.85;;;6.10;99.90;;;;;;5126253;27;20126;-67
2021/11/21 03:24:25;;;;;;;14.88;7.82;;;6.10;99.90;;;;;;5126864;27;20047;-67
2021/11/21 03:26:50;;;;;;;11.00;6.90;;;6.10;99.90;;;;;;5126056;27;20431;-67
2021/11/21 03:29:16;;;;;;;;;;;6.10;99.90;;;;;;5127522;28;20047;-67
2021/11/21 03:31:41;;;;;;;16.83;6.32;;;6.00;99.90;;;;;;5126109;27;20002;-67
2021/11/21 03:34:07;;;;;;;14.20;7.47;;;6.00;99.90;;;;;;5126176;28;20054;-67
2021/11/21 03:36:33;;;;;;;;;;;6.00;99.90;;;;;;5125712;28;20128;-67
2021/11/21 03:39:00;;;;;;;14.10;7.20;;;6.00;99.90;;;;;;5105734;28;19920;-67
2021/11/21 03:41:26;;;;;;;12.15;6.97;;;6.00;99.90;;;;;;5105841;28;20118;-67
2021/11/21 03:43:53;;;;;;;10.45;6.25;;;6.10;99.90;;;;;;5105855;28;20036;-67
2021/11/21 03:46:20;;;;;;;9.70;5.97;;;6.00;99.90;;;;;;5105060;28;20044;-67
2021/11/21 03:48:46;;;;;;;10.50;5.95;;;6.10;99.90;;;;;;5114101;28;20071;-67
2021/11/21 03:51:12;;;;;;;13.80;7.75;;;6.10;99.90;;;;;;5126229;27;20078;-67
2021/11/21 03:53:38;;;;;;;;;;;6.10;99.90;;;;;;5129757;27;20623;-67
2021/11/21 03:56:04;;;;;;;11.57;7.20;;;6.10;99.90;;;;;;5124950;27;19916;-67
2021/11/21 03:58:30;;;;;;;10.80;6.50;;;6.10;99.90;;;;;;5109818;28;20104;-67
2021/11/21 04:00:55;;;;;;;;;;;6.10;99.90;;;;;;5109562;27;20036;-67
2021/11/21 04:03:21;;;;;;;11.60;6.32;;;6.10;99.90;;;;;;5112537;27;20280;-67
2021/11/21 04:05:47;;;;;;;10.43;6.10;;;6.10;99.90;;;;;;5106366;28;20036;-67
2021/11/21 04:08:13;;;;;;;11.25;6.88;;;6.10;99.90;;;;;;5116682;27;20046;-67
2021/11/21 04:10:38;;;;;;;8.90;5.53;;;6.10;99.90;;;;;;5124812;27;20178;-67
2021/11/21 04:13:05;;;;;;;9.63;6.03;;;6.10;99.90;;;;;;5130122;27;20549;-67
2021/11/21 04:15:31;;;;;;;10.45;6.35;;;6.10;99.90;;;;;;5129964;27;20038;-68
2021/11/21 04:17:57;;;;;;;11.02;6.45;;;6.10;99.90;;;;;;5130457;27;20035;-67
2021/11/21 04:20:23;;;;;;;11.77;6.72;;;6.10;99.90;;;;;;5129958;27;20529;-67
2021/11/21 04:22:49;;;;;;;11.38;6.80;;;6.10;99.90;;;;;;5122503;27;20059;-67
2021/11/21 04:25:14;;;;;;;;;;;6.10;99.90;;;;;;5121892;27;20027;-67
2021/11/21 04:27:42;;;;;;;10.77;6.00;;;6.10;99.90;;;;;;5120806;27;19931;-67
2021/11/21 04:30:10;;;;;;;11.15;6.30;;;6.10;99.90;;;;;;5123568;27;20035;-67
2021/11/21 04:32:39;;;;;;;11.38;6.53;;;6.10;99.90;;;;;;5115306;27;20050;-67
2021/11/21 04:35:08;;;;;;;9.15;6.07;;;6.10;99.90;;;;;;5119033;27;20710;-67
2021/11/21 04:37:34;;;;;;;10.55;5.70;;;6.10;99.90;;;;;;5114325;27;20047;-67
2021/11/21 04:39:59;;;;;;;8.82;5.13;;;6.10;99.90;;;;;;5107717;27;20039;-67
2021/11/21 04:42:25;;;;;;;11.15;6.18;;;6.10;99.90;;;;;;5114441;27;20399;-67
2021/11/21 04:44:51;;;;;;;8.82;4.75;;;6.10;99.90;;;;;;5110449;27;20122;-66
2021/11/21 04:47:17;;;;;;;8.40;5.30;;;6.10;99.90;;;;;;5118716;27;20036;-67
2021/11/21 04:49:42;;;;;;;8.95;5.05;;;6.10;99.90;;;;;;5110391;27;20509;-67
2021/11/21 04:52:08;;;;;;;8.75;5.10;;;6.10;99.90;;;;;;5106419;28;20498;-67
2021/11/21 04:54:35;;;;;;;9.32;5.72;;;6.10;99.90;;;;;;5118448;27;20097;-67
2021/11/21 04:57:01;;;;;;;8.68;5.60;;;6.10;99.90;;;;;;5126914;27;20043;-67
2021/11/21 04:59:27;;;;;;;8.70;5.15;;;6.10;99.90;;;;;;5126234;27;20039;-67
2021/11/21 05:01:52;;;;;;;8.90;5.07;;;6.10;99.90;;;;;;5123089;27;20089;-66
2021/11/21 05:04:18;;;;;;;;;;;6.10;99.90;;;;;;5117907;27;20624;-66
2021/11/21 05:06:43;;;;;;;10.02;4.97;;;6.00;99.90;;;;;;5104793;28;19964;-67
2021/11/21 05:09:09;;;;;;;8.10;4.70;;;6.00;99.90;;;;;;5112711;27;20040;-66
2021/11/21 05:11:35;;;;;;;;;;;6.00;99.90;;;;;;5129761;27;20449;-67
2021/11/21 05:14:02;;;;;;;8.95;5.07;;;6.00;99.90;;;;;;5128909;27;19915;-67
2021/11/21 05:16:28;;;;;;;8.57;4.72;;;6.00;99.90;;;;;;5128189;27;20130;-67
2021/11/21 05:18:54;;;;;;;8.05;4.85;;;6.00;99.90;;;;;;5128871;27;20138;-67
2021/11/21 05:21:21;;;;;;;6.40;4.43;;;6.00;99.90;;;;;;5126610;27;20118;-67
2021/11/21 05:23:47;;;;;;;7.13;4.35;;;6.00;99.90;;;;;;5128633;27;20087;-66
2021/11/21 05:26:13;;;;;;;7.70;4.63;;;6.00;99.90;;;;;;5125745;27;20058;-66
2021/11/21 05:28:39;;;;;;;6.28;3.95;;;6.00;99.90;;;;;;5129327;27;20039;-67
2021/11/21 05:31:04;;;;;;;5.63;3.78;;;6.00;99.90;;;;;;5127290;27;20039;-67
2021/11/21 05:33:30;;;;;;;;;;;6.00;99.90;;;;;;5118029;27;20091;-66
2021/11/21 05:35:55;;;;;;;4.93;3.33;;;6.00;99.90;;;;;;5125035;27;19927;-66
2021/11/21 05:38:21;;;;;;;;;;;6.10;99.90;;;;;;5121493;27;20052;-67
2021/11/21 05:40:47;;;;;;;5.13;3.22;;;6.10;99.90;;;;;;5125017;27;19919;-67
2021/11/21 05:43:13;;;;;;;4.80;3.33;;;6.10;99.90;;;;;;5128152;27;20047;-67
2021/11/21 05:45:39;;;;;;;5.80;3.88;;;6.10;99.90;;;;;;5126675;27;20047;-66
2021/11/21 05:48:04;;;;;;;;;;;6.00;99.90;;;;;;5124639;27;20089;-67
2021/11/21 05:50:30;;;;;;;6.85;3.70;;;6.10;99.90;;;;;;5107356;28;20028;-67
2021/11/21 05:52:56;;;;;;;5.82;3.50;;;6.10;99.90;;;;;;5110395;27;20694;-67
2021/11/21 05:55:22;;;;;;;5.18;3.53;;;6.10;99.90;;;;;;5129432;27;20027;-66
2021/11/21 05:57:50;;;;;;;;;;;6.00;99.90;;;;;;5126913;27;20047;-67
2021/11/21 06:00:19;;;;;;;5.93;3.75;;;6.00;99.90;;;;;;5125735;27;19935;-67
2021/11/21 06:02:45;;;;;;;6.22;3.55;;;6.10;99.90;;;;;;5118529;27;20096;-67
2021/11/21 06:05:11;;;;;;;5.57;3.53;;;6.10;99.90;;;;;;5108563;28;20031;-65
2021/11/21 06:07:36;;;;;;;4.75;3.47;;;6.00;99.90;;;;;;5111345;27;20046;-66
2021/11/21 06:10:04;;;;;;;5.50;3.75;;;6.10;99.90;;;;;;5115523;27;20109;-66
2021/11/21 06:12:30;;;;;;;7.03;3.83;;;6.10;99.90;;;;;;5125569;27;20114;-67
2021/11/21 06:14:56;;;;;;;6.10;3.78;;;6.10;99.90;;;;;;5119337;27;20038;-66
2021/11/21 06:17:22;;;;;;;5.40;3.35;;;6.10;99.90;;;;;;5124047;27;20515;-67
2021/11/21 06:19:48;;;;;;;5.53;3.47;;;6.10;99.90;;;;;;5126630;27;20035;-67
2021/11/21 06:22:13;;;;;;;4.97;3.45;;;6.10;99.90;;;;;;5127806;27;20046;-67
2021/11/21 06:24:39;;;;;;;8.93;5.15;;;6.10;99.90;;;;;;5128054;27;20039;-66
2021/11/21 06:27:05;;;;;;;;;;;6.10;99.90;;;;;;5127129;27;20047;-66
2021/11/21 06:29:31;;;;;;;8.02;4.35;;;6.10;99.90;;;;;;5126558;27;19922;-67
2021/11/21 06:31:57;;;;;;;8.98;5.28;;;6.10;99.90;;;;;;5127706;27;20039;-67
2021/11/21 06:34:23;;;;;;;8.25;4.40;;;6.00;99.90;;;;;;5126705;27;20041;-67
2021/11/21 06:36:48;;;;;;;8.13;3.75;;;6.00;99.90;;;;;;5113025;27;20122;-66
2021/11/21 06:39:14;;;;;;;;;;;6.00;99.90;;;;;;5110149;27;20031;-66
2021/11/21 06:41:40;;;;;;;7.35;4.20;;;6.00;99.90;;;;;;5125502;27;19970;-66
2021/11/21 06:44:05;;;;;;;;;;;6.00;99.90;;;;;;5127671;27;20046;-67
2021/11/21 06:46:32;;;;;;;7.65;4.25;;;6.00;99.90;;;;;;5124439;27;20378;-67
2021/11/21 06:48:58;;;;;;;52.78;25.40;;;6.10;99.90;;;;;;5112613;27;20128;-68
2021/11/21 06:51:24;;;;;;;13.63;6.93;;;6.00;99.90;;;;;;5102447;28;20139;-67
2021/11/21 06:53:49;;;;;;;7.75;4.65;;;6.10;99.90;;;;;;5105180;28;20542;-67
2021/11/21 06:56:17;;;;;;;5.82;3.65;;;6.10;99.90;;;;;;5106197;28;20046;-66
2021/11/21 06:58:43;;;;;;;4.97;3.00;;;6.00;99.90;;;;;;5104498;28;20032;-67
2021/11/21 07:01:09;;;;;;;4.20;2.97;;;5.90;99.90;;;;;;5101224;28;20036;-67
2021/11/21 07:03:35;;;;;;;4.22;3.03;;;5.90;99.90;;;;;;5106633;28;20042;-66
2021/11/21 07:06:01;;;;;;;4.20;2.88;;;6.00;99.90;;;;;;5105961;28;20078;-66
2021/11/21 07:08:27;;;;;;;4.72;2.88;;;6.00;99.90;;;;;;5110836;28;20075;-64
2021/11/21 07:10:52;;;;;;;;;;;6.00;99.90;;;;;;5119312;28;20039;-64
2021/11/21 07:13:20;;;;;;;4.57;3.20;;;6.10;99.90;;;;;;5121620;27;19931;-65
2021/11/21 07:15:49;;;;;;;19.33;10.38;;;6.00;99.90;;;;;;5121946;27;20046;-64
2021/11/21 07:18:15;;;;;;;16.73;10.18;;;6.00;99.90;;;;;;5126450;27;20043;-65
2021/11/21 07:20:41;;;;;;;6.78;4.25;;;6.00;99.90;;;;;;5116508;28;20039;-65
2021/11/21 07:23:06;;;;;;;;;;;6.00;99.90;;;;;;5117235;28;20404;-65
2021/11/21 07:25:32;;;;;;;9.80;5.25;;;5.90;99.90;;;;;;5112964;27;19919;-65
2021/11/21 07:27:59;;;;;;;4.90;2.95;;;5.90;99.90;;;;;;5106656;28;20039;-64
2021/11/21 07:30:25;;;;;;;80.40;45.08;;;6.00;99.90;;;;;;5109487;28;20806;-65
2021/11/21 07:32:53;;;;;;;13.32;7.82;;;6.00;99.90;;;;;;5112148;27;20130;-64
2021/11/21 07:35:21;;;;;;;6.72;4.00;;;6.00;99.90;;;;;;5115815;27;20047;-64
2021/11/21 07:37:47;;;;;;;5.43;3.38;;;6.10;99.90;;;;;;5114322;27;20070;-64
2021/11/21 07:40:19;;;;;;;16.25;8.43;;;6.10;99.90;;;;;;5120951;27;20073;-65
2021/11/21 07:42:50;;;;;;;8.07;4.75;;;6.10;99.90;;;;;;5129519;27;20065;-65
2021/11/21 07:45:21;;;;;;;8.10;4.03;;;6.10;99.90;;;;;;5119768;27;20092;-66
2021/11/21 07:47:49;;;;;;;5.43;3.45;;;6.20;99.90;;;;;;5129921;27;20161;-66
2021/11/21 07:50:15;;;;;;;4.85;3.60;;;6.20;99.90;;;;;;5107591;28;20044;-63
2021/11/21 07:52:42;;;;;;;4.80;3.38;;;6.20;99.90;;;;;;5108397;28;20542;-66
2021/11/21 07:55:19;;;;;;;5.82;3.95;;;6.20;99.90;;;;;;5111024;28;20035;-66
2021/11/21 07:57:51;;;;;;;9.35;5.78;;;6.20;99.90;;;;;;5109441;27;20039;-66
2021/11/21 08:00:20;;;;;;;6.93;4.50;;;6.20;99.90;;;;;;5116211;27;20059;-68
2021/11/21 08:02:48;;;;;;;5.90;4.25;;;6.20;99.90;;;;;;5121489;27;20039;-67
2021/11/21 08:05:23;;;;;;;5.95;4.13;;;6.20;99.90;;;;;;5122506;27;20033;-67
2021/11/21 08:07:54;;;;;;;6.07;3.92;;;6.20;99.90;;;;;;5115934;27;20106;-69
2021/11/21 08:10:26;;;;;;;6.88;4.78;;;6.30;99.90;;;;;;5108296;28;20031;-62
2021/11/21 08:12:51;;;;;;;7.03;4.30;;;6.30;99.90;;;;;;5108411;28;20050;-64
2021/11/21 08:15:17;;;;;;;;;;;6.30;99.90;;;;;;5110716;27;20043;-64
2021/11/21 08:17:46;;;;;;;5.97;4.00;;;6.30;99.90;;;;;;5108753;28;20034;-64
2021/11/21 08:20:12;;;;;;;7.13;4.78;;;6.30;99.90;;;;;;5106718;28;20100;-63
2021/11/21 08:22:48;;;;;;;7.55;4.85;;;6.30;99.90;;;;;;5110884;28;20042;-63
2021/11/21 08:25:14;;;;;;;7.35;4.28;;;6.40;99.90;;;;;;5110378;28;20044;-63
2021/11/21 08:27:50;;;;;;;5.60;3.90;;;6.40;99.90;;;;;;5109835;28;20051;-67
2021/11/21 08:30:18;;;;;;;4.82;3.47;;;6.50;99.90;;;;;;5097006;27;20047;-64
2021/11/21 08:32:47;;;;;;;6.93;3.60;;;6.60;99.90;;;;;;5119210;27;20049;-63
2021/11/21 08:35:18;;;;;;;5.45;3.75;;;6.60;99.90;;;;;;5108980;28;20039;-65
2021/11/21 08:37:48;;;;;;;3.47;2.67;;;6.70;99.90;;;;;;5114750;27;20058;-64
2021/11/21 08:40:17;;;;;;;3.75;2.70;;;6.80;99.90;;;;;;5121687;27;20027;-64
2021/11/21 08:42:45;;;;;;;4.63;2.80;;;6.70;99.90;;;;;;5129645;27;20035;-64
2021/11/21 08:45:11;;;;;;;5.47;2.80;;;6.60;99.90;;;;;;5115656;27;20034;-64
2021/11/21 08:47:36;;;;;;;;;;;6.70;99.90;;;;;;5119227;27;20043;-64
2021/11/21 08:50:07;;;;;;;4.95;3.33;;;6.70;99.90;;;;;;5108930;27;20445;-64
2021/11/21 08:52:32;;;;;;;13.02;7.78;;;6.70;99.90;;;;;;5109608;28;20036;-64
2021/11/21 08:54:58;;;;;;;;;;;6.70;99.90;;;;;;5110762;28;20503;-64
2021/11/21 08:57:24;;;;;;;29.63;17.70;;;6.70;99.90;;;;;;5109316;28;19938;-64
2021/11/21 08:59:50;;;;;;;11.68;7.03;;;6.80;99.90;;;;;;5107067;28;20039;-63
2021/11/21 09:02:15;;;;;;;11.23;6.03;;;6.80;99.90;;;;;;5112096;27;20035;-63
2021/11/21 09:04:41;;;;;;;5.20;3.33;;;6.80;99.90;;;;;;5128196;27;20043;-64
2021/11/21 09:07:07;;;;;;;2.97;1.92;;;6.90;99.90;;;;;;5108852;27;20433;-64
2021/11/21 09:09:33;;;;;;;;;;;6.80;99.90;;;;;;5110097;28;20075;-64
2021/11/21 09:11:58;;;;;;;7.22;4.22;;;6.90;99.90;;;;;;5117749;27;19953;-62
2021/11/21 09:14:26;;;;;;;11.68;6.25;;;6.80;99.90;;;;;;5119390;27;20043;-63
2021/11/21 09:16:52;;;;;;;3.45;2.00;;;6.90;99.90;;;;;;5126829;27;20126;-63
2021/11/21 09:19:18;;;;;;;1.83;1.20;;;6.90;99.90;;;;;;5129428;27;20063;-63
2021/11/21 09:21:43;;;;;;;;;;;6.90;99.90;;;;;;5129286;27;20043;-63
2021/11/21 09:24:09;;;;;;;1.05;0.80;;;6.90;99.90;;;;;;5128835;27;19950;-63
2021/11/21 09:26:35;;;;;;;1.23;0.82;;;6.90;99.90;;;;;;5118749;27;20084;-62
2021/11/21 09:29:01;;;;;;;1.00;0.80;;;6.80;99.90;;;;;;5109260;27;20047;-63
2021/11/21 09:31:27;;;;;;;1.10;0.70;;;6.80;99.90;;;;;;5113707;27;20036;-63
2021/11/21 09:33:52;;;;;;;;;;;6.90;99.90;;;;;;5113735;27;20105;-63
2021/11/21 09:36:18;;;;;;;1.13;0.90;;;6.90;99.90;;;;;;5113969;27;19973;-63
2021/11/21 09:38:44;;;;;;;;;;;6.90;99.90;;;;;;5115709;27;20495;-63
2021/11/21 09:41:10;;;;;;;2.93;0.67;;;6.90;99.90;;;;;;5128616;27;19919;-63
2021/11/21 09:43:36;;;;;;;;;;;6.90;99.90;;;;;;5129644;27;20043;-63
2021/11/21 09:46:01;;;;;;;0.60;0.60;;;6.90;99.90;;;;;;5128100;27;19923;-63
2021/11/21 09:48:31;;;;;;;;;;;6.90;99.90;;;;;;5124928;27;20073;-64
2021/11/21 09:50:56;;;;;;;0.90;0.60;;;6.90;99.90;;;;;;5107714;28;19918;-64
2021/11/21 09:53:22;;;;;;;;;;;6.80;99.90;;;;;;5110813;28;20699;-63
2021/11/21 09:55:48;;;;;;;0.65;0.60;;;6.90;99.90;;;;;;5107503;28;19939;-64
2021/11/21 09:58:14;;;;;;;3.40;1.73;;;6.90;99.90;;;;;;5108467;28;20097;-63
2021/11/21 10:00:40;;;;;;;;;;;6.90;99.90;;;;;;5126566;27;20035;-64
2021/11/21 10:03:14;;;;;;;1.85;1.13;;;6.90;99.90;;;;;;5120386;27;19919;-65
2021/11/21 10:05:53;;;;;;;1.50;1.00;;;6.80;99.90;;;;;;5109259;28;20051;-64
2021/11/21 10:08:28;;;;;;;3.95;2.50;;;6.80;99.90;;;;;;5116725;27;20028;-64
2021/11/21 10:11:08;;;;;;;5.90;2.85;;;6.80;99.90;;;;;;5116664;27;20036;-64
2021/11/21 10:13:40;;;;;;;5.25;2.65;;;6.70;99.90;;;;;;5129330;27;20039;-64
2021/11/21 10:16:18;;;;;;;10.40;5.18;;;6.80;99.90;;;;;;5127802;27;20967;-64
2021/11/21 10:18:46;;;;;;;3.53;1.98;;;6.90;99.90;;;;;;5130401;27;20058;-64
2021/11/21 10:21:13;;;;;;;1.77;1.02;;;6.90;99.90;;;;;;5130403;27;20047;-65
2021/11/21 10:23:38;;;;;;;0.70;0.52;;;6.90;99.90;;;;;;5130461;27;20050;-64
2021/11/21 10:26:04;;;;;;;;;;;6.90;99.90;;;;;;5127353;27;20047;-64
2021/11/21 10:28:32;;;;;;;3.00;1.70;;;7.00;99.90;;;;;;5129584;27;19915;-65
2021/11/21 10:30:58;;;;;;;1.20;0.80;;;7.00;99.90;;;;;;5123349;27;20043;-63
2021/11/21 10:33:29;;;;;;;;;;;7.10;99.90;;;;;;5116248;27;20042;-65
2021/11/21 10:36:08;;;;;;;0.95;0.55;;;7.10;99.90;;;;;;5104179;28;19916;-65
2021/11/21 10:38:38;;;;;;;0.60;0.60;;;7.10;99.90;;;;;;5112988;27;20060;-64
2021/11/21 10:41:12;;;;;;;0.73;0.73;;;7.10;99.90;;;;;;5125518;27;20039;-66
2021/11/21 10:43:45;;;;;;;0.82;0.60;;;7.10;99.90;;;;;;5129359;27;20043;-65
2021/11/21 10:46:21;;;;;;;9.48;4.95;;;7.10;99.90;;;;;;5124803;27;20104;-64
2021/11/21 10:48:46;;;;;;;1.60;1.00;;;7.10;99.90;;;;;;5120347;27;20047;-64
2021/11/21 10:51:19;;;;;;;17.88;8.95;;;6.90;99.90;;;;;;5109312;28;20040;-65
2021/11/21 10:53:46;;;;;;;15.63;8.20;;;6.90;99.90;;;;;;5107778;27;20066;-65
2021/11/21 10:56:12;;;;;;;5.15;2.72;;;7.00;99.90;;;;;;5108241;27;20047;-64
2021/11/21 10:58:43;;;;;;;;;;;7.00;99.90;;;;;;5106994;28;20449;-64
2021/11/21 11:01:19;;;;;;;1.90;1.27;;;7.00;99.90;;;;;;5107256;28;19923;-65
2021/11/21 11:04:07;;;;;;;1.75;0.93;;;7.10;99.90;;;;;;5108387;28;20412;-65
2021/11/21 11:06:32;;;;;;;2.90;1.45;;;7.10;99.90;;;;;;5105785;28;20055;-64
2021/11/21 11:09:18;;;;;;;;;;;7.10;99.90;;;;;;5116895;28;20119;-64
2021/11/21 11:11:44;;;;;;;18.98;12.77;;;7.10;99.90;;;;;;5128134;27;19925;-64
2021/11/21 11:14:10;;;;;;;6.20;3.55;;;7.00;99.90;;;;;;5127996;28;20058;-64
2021/11/21 11:16:36;;;;;;;1.35;0.90;;;7.10;99.90;;;;;;5126318;27;20126;-64
2021/11/21 11:19:02;;;;;;;;;;;7.00;99.90;;;;;;5124893;27;20483;-64
2021/11/21 11:21:28;;;;;;;0.73;0.38;;;6.90;99.90;;;;;;5126380;27;20088;-64
2021/11/21 11:23:54;;;;;;;;;;;6.90;99.90;;;;;;5119744;28;20118;-64
2021/11/21 11:26:23;;;;;;;0.32;0.32;;;7.00;99.90;;;;;;5106423;28;19920;-64
2021/11/21 11:28:55;;;;;;;18.02;9.98;;;7.00;99.90;;;;;;5107382;28;20399;-65
2021/11/21 11:31:26;;;;;;;1.83;1.15;;;7.00;99.90;;;;;;5106898;28;20031;-64
2021/11/21 11:33:54;;;;;;;2.67;1.13;;;7.00;99.90;;;;;;5107482;28;20122;-64
2021/11/21 11:36:26;;;;;;;1.88;0.65;;;7.00;99.90;;;;;;5105770;28;20051;-64
2021/11/21 11:39:06;;;;;;;4.88;3.05;;;7.00;99.90;;;;;;5112872;28;20044;-65
2021/11/21 11:41:32;;;;;;;2.38;0.88;;;7.00;99.90;;;;;;5128231;28;20046;-65
2021/11/21 11:44:00;;;;;;;0.70;0.55;;;7.00;99.90;;;;;;5127622;27;20130;-65
2021/11/21 11:46:32;;;;;;;2.53;0.73;;;7.10;99.90;;;;;;5125818;27;20050;-64
2021/11/21 11:49:01;;;;;;;2.00;0.60;;;7.10;99.90;;;;;;5115957;27;20043;-65
2021/11/21 11:51:38;;;;;;;3.13;2.05;;;7.20;99.90;;;;;;5106988;28;20040;-64
2021/11/21 11:54:15;;;;;;;1.42;0.90;;;7.20;99.90;;;;;;5109428;28;20039;-64
2021/11/21 11:56:42;;;;;;;2.60;0.80;;;7.30;99.90;;;;;;5105859;28;20051;-64
2021/11/21 11:59:11;;;;;;;3.03;1.05;;;7.30;99.90;;;;;;5104358;28;20078;-64
2021/11/21 12:01:39;;;;;;;1.85;1.02;;;7.30;99.90;;;;;;5106882;28;20108;-65
2021/11/21 12:04:29;;;;;;;1.40;1.00;;;7.40;99.90;;;;;;5107141;28;20074;-64
2021/11/21 12:06:56;;;;;;;3.03;1.10;;;7.50;99.90;;;;;;5106204;28;20075;-64
2021/11/21 12:09:25;;;;;;;2.25;1.15;;;7.50;99.90;;;;;;5111314;27;20488;-64
2021/11/21 12:11:51;;;;;;;2.33;1.08;;;7.50;99.90;;;;;;5124692;28;20104;-64
2021/11/21 12:14:28;;;;;;;4.63;1.27;;;7.40;99.90;;;;;;5128781;27;20116;-64
2021/11/21 12:16:57;;;;;;;3.03;1.17;;;7.40;99.90;;;;;;5128767;27;20120;-64
2021/11/21 12:19:42;;;;;;;2.42;1.42;;;7.30;99.90;;;;;;5128624;27;20465;-64
2021/11/21 12:22:30;;;;;;;3.25;1.20;;;7.40;99.90;;;;;;5130271;27;20039;-64
2021/11/21 12:24:58;;;;;;;3.03;1.52;;;7.30;99.90;;;;;;5131017;27;20095;-64
2021/11/21 12:27:27;;;;;;;5.82;1.80;;;7.30;99.90;;;;;;5113651;27;20048;-64
2021/11/21 12:30:13;;;;;;;7.65;2.38;;;7.20;99.90;;;;;;5116434;27;20036;-64
2021/11/21 12:32:53;;;;;;;7.22;2.60;;;7.10;99.90;;;;;;5106611;28;20042;-64
2021/11/21 12:35:28;;;;;;;5.88;2.47;;;7.10;99.90;;;;;;5110635;28;20487;-64
2021/11/21 12:37:56;;;;;;;7.22;2.10;;;7.20;99.90;;;;;;5115261;27;20134;-65
2021/11/21 12:40:25;;;;;;;9.35;2.72;;;7.20;99.90;;;;;;5120129;27;20667;-64
2021/11/21 12:42:53;;;;;;;12.73;2.40;;;7.10;99.90;;;;;;5127245;27;20031;-65
2021/11/21 12:45:21;;;;;;;5.82;2.25;;;7.10;99.90;;;;;;5127321;27;20058;-64
2021/11/21 12:47:50;;;;;;;8.70;2.42;;;7.00;99.90;;;;;;5126818;27;20074;-64
2021/11/21 12:50:20;;;;;;;10.70;2.80;;;7.00;99.90;;;;;;5123295;27;20113;-64
2021/11/21 12:53:22;;;;;;;6.88;2.50;;;7.00;99.90;;;;;;5127222;27;20043;-64
2021/11/21 12:55:51;;;;;;;8.88;2.30;;;6.90;99.90;;;;;;5082993;27;20104;-64
2021/11/21 12:58:25;;;;;;;7.88;2.70;;;7.00;99.90;;;;;;5129041;27;20123;-64
2021/11/21 13:00:53;;;;;;;12.18;3.75;;;7.00;99.90;;;;;;5131393;27;20039;-64
2021/11/21 13:03:21;;;;;;;12.98;4.35;;;6.90;99.90;;;;;;5118914;27;20716;-64
2021/11/21 13:05:55;;;;;;;20.88;7.95;;;6.90;99.90;;;;;;5107911;28;20042;-64